createdAt,value
2019-01-10T00:01:16.022Z,2.39
2019-01-10T00:06:22.452Z,2.29
2019-01-10T00:11:28.908Z,2.33
2019-01-10T00:16:35.399Z,2.35
2019-01-10T00:21:41.401Z,2.35
2019-01-10T00:26:47.787Z,2.36
2019-01-10T00:31:54.035Z,2.32
2019-01-10T00:37:00.967Z,2.29
2019-01-10T00:42:07.105Z,2.28
2019-01-10T00:47:13.486Z,2.21
2019-01-10T00:52:19.757Z,2.22
2019-01-10T00:57:26.391Z,2.20
2019-01-10T01:02:32.442Z,2.23
2019-01-10T01:07:38.645Z,2.25
2019-01-10T01:12:44.896Z,2.20
2019-01-10T01:17:50.868Z,2.19
2019-01-10T01:22:57.276Z,2.10
2019-01-10T01:28:05.370Z,2.11
2019-01-10T01:33:11.765Z,2.10
2019-01-10T01:38:17.733Z,2.06
2019-01-10T01:43:23.715Z,2.13
2019-01-10T01:48:29.591Z,2.08
2019-01-10T01:53:35.757Z,2.02
2019-01-10T01:58:42.560Z,2.06
2019-01-10T02:03:48.726Z,2.14
2019-01-10T02:08:54.888Z,2.09
2019-01-10T02:14:00.770Z,2.11
2019-01-10T02:19:06.749Z,2.05
2019-01-10T02:24:13.048Z,2.07
2019-01-10T02:29:19.202Z,2.05
2019-01-10T02:34:25.610Z,2.05
2019-01-10T02:39:31.929Z,2.04
2019-01-10T02:44:38.240Z,1.99
2019-01-10T02:49:44.319Z,2.06
2019-01-10T02:54:50.199Z,2.08
2019-01-10T02:59:56.165Z,2.16
2019-01-10T03:05:02.138Z,2.11
2019-01-10T03:10:11.222Z,2.08
2019-01-10T03:15:17.392Z,2.05
2019-01-10T03:20:24.071Z,2.11
2019-01-10T03:25:31.376Z,2.17
2019-01-10T03:30:37.343Z,2.21
2019-01-10T03:35:43.636Z,2.12
2019-01-10T03:40:49.788Z,2.13
2019-01-10T03:45:56.074Z,2.06
2019-01-10T03:51:02.257Z,2.17
2019-01-10T03:56:08.463Z,2.22
2019-01-10T04:01:14.701Z,2.14
2019-01-10T04:06:20.997Z,2.17
2019-01-10T04:11:27.277Z,2.15
2019-01-10T04:16:33.630Z,2.21
2019-01-10T04:21:39.982Z,2.07
2019-01-10T04:26:46.452Z,2.06
2019-01-10T04:31:52.595Z,2.11
2019-01-10T04:36:58.554Z,2.02
2019-01-10T04:42:05.662Z,1.96
2019-01-10T04:47:11.768Z,1.86
2019-01-10T04:52:18.012Z,1.92
2019-01-10T04:57:24.225Z,2.03
2019-01-10T05:02:30.280Z,2.02
2019-01-10T05:07:36.223Z,2.06
2019-01-10T05:12:42.429Z,2.00
2019-01-10T05:17:48.298Z,2.04
2019-01-10T05:22:54.266Z,2.03
2019-01-10T05:28:00.356Z,2.02
2019-01-10T05:33:06.579Z,1.96
2019-01-10T05:38:12.597Z,1.97
2019-01-10T05:43:18.679Z,1.99
2019-01-10T05:48:24.545Z,1.86
2019-01-10T05:53:30.487Z,1.78
2019-01-10T05:58:36.584Z,1.76
2019-01-10T06:03:42.462Z,1.67
2019-01-10T06:08:48.545Z,1.72
2019-01-10T06:13:54.842Z,1.80
2019-01-10T06:19:00.804Z,1.68
2019-01-10T06:24:08.566Z,1.75
2019-01-10T06:29:14.554Z,1.82
2019-01-10T06:34:20.660Z,1.87
2019-01-10T06:39:26.628Z,1.92
2019-01-10T06:44:32.642Z,1.99
2019-01-10T06:49:38.826Z,2.01
2019-01-10T06:54:56.179Z,2.09
2019-01-10T06:59:55.115Z,1.99
2019-01-10T07:05:00.705Z,1.98
2019-01-10T07:10:14.163Z,2.09
2019-01-10T07:15:20.563Z,2.00
2019-01-10T07:20:27.195Z,1.97
2019-01-10T07:25:33.523Z,2.01
2019-01-10T07:30:39.779Z,1.95
2019-01-10T07:35:48.938Z,1.89
2019-01-10T07:40:55.238Z,1.91
2019-01-10T07:46:04.179Z,1.88
2019-01-10T07:51:09.994Z,1.92
2019-01-10T07:56:16.311Z,2.06
2019-01-10T08:01:22.915Z,2.10
2019-01-10T08:06:29.586Z,2.11
2019-01-10T08:11:36.701Z,1.98
2019-01-10T08:16:42.986Z,2.02
2019-01-10T08:21:49.149Z,2.07
2019-01-10T08:26:55.635Z,2.01
2019-01-10T08:32:04.093Z,2.05
2019-01-10T08:37:12.206Z,1.97
2019-01-10T08:42:18.899Z,2.04
2019-01-10T08:47:25.267Z,2.13
2019-01-10T08:52:31.425Z,2.17
2019-01-10T08:57:38.256Z,2.30
2019-01-10T09:02:44.731Z,2.47
2019-01-10T09:07:51.068Z,2.48
2019-01-10T09:12:57.213Z,2.33
2019-01-10T09:18:03.563Z,2.49
2019-01-10T09:23:09.517Z,2.64
2019-01-10T09:28:16.554Z,2.68
2019-01-10T09:33:22.615Z,2.66
2019-01-10T09:38:28.564Z,2.42
2019-01-10T09:43:34.538Z,2.42
2019-01-10T09:48:40.734Z,2.47
2019-01-10T09:53:46.896Z,2.36
2019-01-10T09:58:53.223Z,2.37
2019-01-10T10:03:59.424Z,2.48
2019-01-10T10:09:08.243Z,2.40
2019-01-10T10:14:14.434Z,2.37
2019-01-10T10:19:20.340Z,2.66
2019-01-10T10:24:26.468Z,2.78
2019-01-10T10:29:32.811Z,2.74
2019-01-10T10:34:39.014Z,2.69
2019-01-10T10:39:45.449Z,2.67
2019-01-10T10:44:51.903Z,2.68
2019-01-10T10:49:58.477Z,2.90
2019-01-10T10:55:07.359Z,2.76
2019-01-10T11:00:27.323Z,2.82
2019-01-10T11:05:35.060Z,2.87
2019-01-10T11:10:43.268Z,2.70
2019-01-10T11:15:53.013Z,2.68
2019-01-10T11:20:59.393Z,2.71
2019-01-10T11:26:07.923Z,2.56
2019-01-10T11:31:14.398Z,2.69
2019-01-10T11:36:20.660Z,2.56
2019-01-10T11:41:26.796Z,2.71
2019-01-10T11:46:32.952Z,2.49
2019-01-10T11:51:38.882Z,2.50
2019-01-10T11:56:44.748Z,2.67
2019-01-10T12:01:51.005Z,2.53
2019-01-10T12:06:57.106Z,2.66
2019-01-10T12:12:03.006Z,2.70
2019-01-10T12:17:08.843Z,2.60
2019-01-10T12:22:14.918Z,2.64
2019-01-10T12:27:21.447Z,2.62
2019-01-10T12:32:27.769Z,2.53
2019-01-10T12:37:33.988Z,2.47
2019-01-10T12:42:40.196Z,2.37
2019-01-10T12:47:46.218Z,2.25
2019-01-10T12:52:52.492Z,2.35
2019-01-10T12:57:59.010Z,2.19
2019-01-10T13:03:05.905Z,2.06
2019-01-10T13:08:12.057Z,2.12
2019-01-10T13:13:18.151Z,2.24
2019-01-10T13:18:24.542Z,2.09
2019-01-10T13:23:31.022Z,2.19
2019-01-10T13:28:37.170Z,2.17
2019-01-10T13:33:43.329Z,2.19
2019-01-10T13:38:49.256Z,2.12
2019-01-10T13:43:55.206Z,2.17
2019-01-10T13:49:01.576Z,2.14
2019-01-10T13:54:07.475Z,2.15
2019-01-10T14:04:19.742Z,2.06
2019-01-10T14:09:25.781Z,2.03
2019-01-10T14:14:31.749Z,2.02
2019-01-10T14:19:37.859Z,1.96
2019-01-10T14:24:43.918Z,1.96
2019-01-10T14:29:50.207Z,1.92
2019-01-10T14:34:57.207Z,1.87
2019-01-10T14:40:03.773Z,1.77
2019-01-10T14:45:15.791Z,1.85
2019-01-10T14:50:22.104Z,1.82
2019-01-10T14:55:28.240Z,1.78
2019-01-10T15:00:34.420Z,1.82
2019-01-10T15:05:41.850Z,1.80
2019-01-10T15:10:48.231Z,1.80
2019-01-10T15:15:54.385Z,1.87
2019-01-10T15:21:00.352Z,1.89
2019-01-10T15:26:06.303Z,1.91
2019-01-10T15:31:12.318Z,1.75
2019-01-10T15:36:18.829Z,1.70
2019-01-10T15:41:25.095Z,1.67
2019-01-10T15:46:30.951Z,1.73
2019-01-10T15:51:38.587Z,1.76
2019-01-10T15:56:44.759Z,1.64
2019-01-10T16:01:51.036Z,1.60
2019-01-10T16:06:57.137Z,1.59
2019-01-10T16:12:02.964Z,1.72
2019-01-10T16:17:08.839Z,1.70
2019-01-10T16:22:15.115Z,1.68
2019-01-10T16:27:21.775Z,1.65
2019-01-10T16:32:27.875Z,1.74
2019-01-10T16:37:34.001Z,1.75
2019-01-10T16:42:40.139Z,1.78
2019-01-10T16:47:46.206Z,1.80
2019-01-10T16:52:52.311Z,1.85
2019-01-10T16:57:58.469Z,1.81
2019-01-10T17:03:04.759Z,1.89
2019-01-10T17:08:11.170Z,1.90
2019-01-10T17:13:17.322Z,1.89
2019-01-10T17:18:23.375Z,1.89
2019-01-10T17:23:29.577Z,1.96
2019-01-10T17:28:35.564Z,1.86
2019-01-10T17:33:41.950Z,1.99
2019-01-10T17:38:48.393Z,1.87
2019-01-10T17:43:54.666Z,1.90
2019-01-10T17:49:00.863Z,1.76
2019-01-10T17:54:07.090Z,1.87
2019-01-10T17:59:13.270Z,1.68
2019-01-10T18:04:19.275Z,1.89
2019-01-10T18:09:25.186Z,1.87
2019-01-10T18:14:31.482Z,1.90
2019-01-10T18:19:37.905Z,1.77
2019-01-10T18:24:43.910Z,1.75
2019-01-10T18:29:50.266Z,1.78
2019-01-10T18:34:56.990Z,1.66
2019-01-10T18:40:04.564Z,1.84
2019-01-10T18:45:15.561Z,1.62
2019-01-10T18:50:24.753Z,1.73
2019-01-10T18:55:30.869Z,1.68
2019-01-10T19:00:36.765Z,1.62
2019-01-10T19:05:42.846Z,1.71
2019-01-10T19:10:49.047Z,1.68
2019-01-10T19:15:55.881Z,1.70
2019-01-10T19:21:01.963Z,1.79
2019-01-10T19:26:07.962Z,1.68
2019-01-10T19:31:15.603Z,1.71
2019-01-10T19:36:21.752Z,1.58
2019-01-10T19:41:27.708Z,1.73
2019-01-10T19:46:33.702Z,1.60
2019-01-10T19:51:39.562Z,1.66
2019-01-10T19:56:45.778Z,1.71
2019-01-10T20:01:52.866Z,1.75
2019-01-10T20:07:00.800Z,1.68
2019-01-10T20:12:06.832Z,1.71
2019-01-10T20:17:12.690Z,1.79
2019-01-10T20:22:18.693Z,1.78
2019-01-10T20:27:24.985Z,1.73
2019-01-10T20:32:31.287Z,1.67
2019-01-10T20:37:37.953Z,1.70
2019-01-10T20:42:44.338Z,1.64
2019-01-10T20:47:50.453Z,1.83
2019-01-10T20:52:56.597Z,1.77
2019-01-10T20:58:02.640Z,1.81
2019-01-10T21:03:08.559Z,1.76
2019-01-10T21:08:14.499Z,1.79
2019-01-10T21:13:20.784Z,1.69
2019-01-10T21:18:28.772Z,1.77
2019-01-10T21:23:35.206Z,1.76
2019-01-10T21:28:41.486Z,1.76
2019-01-10T21:33:47.744Z,1.83
2019-01-10T21:38:53.912Z,1.78
2019-01-10T21:44:00.177Z,1.82
2019-01-10T21:49:06.278Z,1.74
2019-01-10T21:54:12.549Z,1.66
2019-01-10T21:59:18.621Z,1.70
2019-01-10T22:04:24.936Z,1.65
2019-01-10T22:09:31.081Z,1.75
2019-01-10T22:14:37.275Z,1.75
2019-01-10T22:19:43.570Z,1.84
2019-01-10T22:24:49.684Z,1.80
2019-01-10T22:29:56.019Z,1.77
2019-01-10T22:35:02.515Z,1.76
2019-01-10T22:40:14.017Z,1.77
2019-01-10T22:45:20.395Z,1.75
2019-01-10T22:50:26.687Z,1.70
2019-01-10T22:55:32.633Z,1.77
2019-01-10T23:01:01.330Z,1.80
2019-01-10T23:06:07.828Z,1.74
2019-01-10T23:11:17.495Z,1.76
2019-01-10T23:16:24.597Z,1.78
2019-01-10T23:21:30.756Z,1.79
2019-01-10T23:26:36.652Z,1.84
2019-01-10T23:31:42.679Z,1.93
2019-01-10T23:36:50.639Z,1.87
2019-01-10T23:41:56.688Z,1.85
2019-01-10T23:47:02.738Z,1.84
2019-01-10T23:52:08.840Z,1.83
2019-01-10T23:57:14.814Z,1.78
